createdAt,value
2022-08-26T00:00:36.045Z,100127.19
2022-08-26T00:03:39.325Z,100117.69
2022-08-26T00:06:45.957Z,100115.00
2022-08-26T00:09:49.959Z,100117.94
2022-08-26T00:12:52.409Z,100111.00
2022-08-26T00:15:54.967Z,100099.16
2022-08-26T00:18:57.198Z,100108.88
2022-08-26T00:22:00.366Z,100112.38
2022-08-26T00:25:02.670Z,100117.31
2022-08-26T00:31:10.754Z,100116.34
2022-08-26T00:34:15.229Z,100115.69
2022-08-26T00:37:18.627Z,100106.66
2022-08-26T00:40:28.366Z,100106.03
2022-08-26T00:43:47.629Z,100105.78
2022-08-26T00:47:00.785Z,100111.81
2022-08-26T00:50:11.208Z,100104.94
2022-08-26T00:53:23.882Z,100104.75
2022-08-26T00:56:33.413Z,100097.59
2022-08-26T00:59:36.257Z,100101.47
2022-08-26T01:02:46.854Z,100101.47
2022-08-26T01:05:51.505Z,100099.16
2022-08-26T01:08:53.763Z,100101.25
2022-08-26T01:11:59.021Z,100096.44
2022-08-26T01:15:02.776Z,100098.69
2022-08-26T01:18:08.304Z,100102.63
2022-08-26T01:21:25.348Z,100093.63
2022-08-26T01:24:30.054Z,100097.56
2022-08-26T01:27:33.715Z,100096.47
2022-08-26T01:30:38.568Z,100099.41
2022-08-26T01:34:04.493Z,100096.72
2022-08-26T01:37:20.494Z,100094.72
2022-08-26T01:40:28.362Z,100098.19
2022-08-26T01:43:33.626Z,100101.47
2022-08-26T01:46:36.044Z,100099.97
2022-08-26T01:49:40.157Z,100094.94
2022-08-26T01:52:50.014Z,100095.50
2022-08-26T01:56:00.502Z,100094.00
2022-08-26T01:59:05.582Z,100089.66
2022-08-26T02:02:08.074Z,100095.88
2022-08-26T02:05:15.892Z,100099.59
2022-08-26T02:08:24.897Z,100097.00
2022-08-26T02:11:28.120Z,100098.22
2022-08-26T02:14:34.946Z,100102.72
2022-08-26T02:17:47.219Z,100103.72
2022-08-26T02:20:52.769Z,100104.38
2022-08-26T02:23:56.581Z,100111.81
2022-08-26T02:26:59.294Z,100098.34
2022-08-26T02:30:29.645Z,100103.34
2022-08-26T02:33:32.109Z,100100.47
2022-08-26T02:36:34.729Z,100099.38
2022-08-26T02:39:38.985Z,100096.09
2022-08-26T02:42:41.503Z,100099.38
2022-08-26T02:45:44.727Z,100095.56
2022-08-26T02:48:47.182Z,100096.78
2022-08-26T02:51:49.992Z,100098.00
2022-08-26T02:54:53.202Z,100096.69
2022-08-26T02:57:55.871Z,100103.75
2022-08-26T03:00:58.346Z,100099.44
2022-08-26T03:04:01.909Z,100103.84
2022-08-26T03:07:04.813Z,100101.25
2022-08-26T03:10:08.505Z,100096.91
2022-08-26T03:13:11.401Z,100094.97
2022-08-26T03:16:14.017Z,100093.69
2022-08-26T03:19:17.619Z,100096.00
2022-08-26T03:22:20.513Z,100096.28
2022-08-26T03:25:23.221Z,100092.03
2022-08-26T03:28:27.038Z,100090.16
2022-08-26T03:31:29.867Z,100092.59
2022-08-26T03:34:32.060Z,100084.41
2022-08-26T03:37:34.451Z,100085.63
2022-08-26T03:40:38.718Z,100085.13
2022-08-26T03:43:41.457Z,100080.94
2022-08-26T03:46:43.650Z,100078.06
2022-08-26T03:49:46.851Z,100076.59
2022-08-26T03:52:50.111Z,100082.44
2022-08-26T03:55:52.967Z,100083.31
2022-08-26T03:58:55.266Z,100081.44
2022-08-26T04:01:58.190Z,100080.63
2022-08-26T04:05:00.735Z,100077.72
2022-08-26T04:08:03.344Z,100089.53
2022-08-26T04:11:06.455Z,100085.81
2022-08-26T04:14:22.261Z,100086.84
2022-08-26T04:17:26.179Z,100092.22
2022-08-26T04:20:28.488Z,100088.69
2022-08-26T04:23:30.940Z,100088.13
2022-08-26T04:26:39.547Z,100086.34
2022-08-26T04:29:46.518Z,100084.13
2022-08-26T04:32:50.224Z,100083.38
2022-08-26T04:36:00.903Z,100090.09
2022-08-26T04:39:05.339Z,100085.06
2022-08-26T04:42:07.864Z,100087.81
2022-08-26T04:45:11.730Z,100085.84
2022-08-26T04:48:16.810Z,100088.34
2022-08-26T04:51:27.403Z,100090.09
2022-08-26T04:54:30.603Z,100082.97
2022-08-26T04:57:33.666Z,100080.41
2022-08-26T05:00:36.146Z,100090.28
2022-08-26T05:03:38.295Z,100091.75
2022-08-26T05:06:43.612Z,100095.44
2022-08-26T05:09:45.796Z,100095.97
2022-08-26T05:12:48.229Z,100081.47
2022-08-26T05:15:51.305Z,100090.47
2022-08-26T05:18:54.804Z,100086.41
2022-08-26T05:21:56.928Z,100087.34
2022-08-26T05:24:59.357Z,100090.28
2022-08-26T05:28:01.466Z,100092.88
2022-08-26T05:31:20.545Z,100089.16
2022-08-26T05:34:23.135Z,100094.75
2022-08-26T05:37:28.316Z,100102.44
2022-08-26T05:40:34.965Z,100092.41
2022-08-26T05:43:37.418Z,100097.00
2022-08-26T05:46:41.387Z,100096.47
2022-08-26T05:49:51.360Z,100104.03
2022-08-26T05:52:54.013Z,100099.78
2022-08-26T05:55:56.683Z,100100.28
2022-08-26T05:59:02.239Z,100100.72
2022-08-26T06:02:05.863Z,100108.34
2022-08-26T06:05:08.619Z,100105.91
2022-08-26T06:08:19.343Z,100112.84
2022-08-26T06:11:26.801Z,100110.53
2022-08-26T06:14:30.519Z,100105.41
2022-08-26T06:17:33.176Z,100114.59
2022-08-26T06:20:36.604Z,100118.22
2022-08-26T06:23:58.345Z,100111.47
2022-08-26T06:27:04.687Z,100113.28
2022-08-26T06:30:09.716Z,100124.41
2022-08-26T06:33:11.979Z,100121.66
2022-08-26T06:36:19.476Z,100116.94
2022-08-26T06:39:21.801Z,100120.78
2022-08-26T06:42:24.182Z,100119.31
2022-08-26T06:45:26.422Z,100113.16
2022-08-26T06:48:28.963Z,100119.28
2022-08-26T06:51:36.030Z,100110.69
2022-08-26T06:54:43.263Z,100117.31
2022-08-26T06:57:46.445Z,100116.84
2022-08-26T07:00:48.877Z,100113.94
2022-08-26T07:03:54.510Z,100111.22
2022-08-26T07:07:00.210Z,100112.16
2022-08-26T07:10:02.331Z,100107.28
2022-08-26T07:13:05.802Z,100100.16
2022-08-26T07:16:12.012Z,100106.62
2022-08-26T07:19:30.481Z,100103.28
2022-08-26T07:22:34.177Z,100102.84
2022-08-26T07:25:41.095Z,100118.94
2022-08-26T07:28:46.138Z,100109.38
2022-08-26T07:31:48.614Z,100104.38
2022-08-26T07:34:51.097Z,100101.75
2022-08-26T07:37:56.917Z,100094.84
2022-08-26T07:40:59.250Z,100090.53
2022-08-26T07:44:02.748Z,100094.25
2022-08-26T07:47:24.596Z,100092.66
2022-08-26T07:50:48.864Z,100092.75
2022-08-26T07:53:52.367Z,100092.75
2022-08-26T07:56:56.038Z,100089.28
2022-08-26T07:59:58.408Z,100092.75
2022-08-26T08:03:03.294Z,100096.06
2022-08-26T08:06:06.093Z,100087.22
2022-08-26T08:09:08.458Z,100092.91
2022-08-26T08:12:14.270Z,100085.56
2022-08-26T08:15:18.606Z,100084.06
2022-08-26T08:18:23.380Z,100077.94
2022-08-26T08:21:27.917Z,100086.28
2022-08-26T08:24:35.847Z,100083.88
2022-08-26T08:27:39.888Z,100074.22
2022-08-26T08:30:42.824Z,100070.28
2022-08-26T08:33:45.522Z,100072.53
2022-08-26T08:36:48.714Z,100069.78
2022-08-26T08:39:51.659Z,100070.28
2022-08-26T08:43:03.821Z,100067.97
2022-08-26T08:46:16.465Z,100067.16
2022-08-26T08:49:20.579Z,100064.03
2022-08-26T08:52:36.007Z,100062.97
2022-08-26T08:56:10.110Z,100060.53
2022-08-26T08:59:18.695Z,100059.56
2022-08-26T09:02:31.918Z,100059.66
2022-08-26T09:05:48.517Z,100053.28
2022-08-26T09:08:52.056Z,100061.88
2022-08-26T09:11:56.254Z,100052.19
2022-08-26T09:15:22.481Z,100048.03
2022-08-26T09:18:56.351Z,100045.22
2022-08-26T09:22:02.279Z,100045.09
2022-08-26T09:25:12.171Z,100046.78
2022-08-26T09:28:20.494Z,100037.84
2022-08-26T09:31:28.071Z,100033.97
2022-08-26T09:34:31.108Z,100031.56
2022-08-26T09:37:35.771Z,100030.47
2022-08-26T09:40:38.935Z,100030.16
2022-08-26T09:43:41.941Z,100026.47
2022-08-26T09:47:07.892Z,100023.66
2022-08-26T09:50:29.146Z,100024.66
2022-08-26T09:53:36.635Z,100020.47
2022-08-26T09:56:39.763Z,100037.16
2022-08-26T09:59:43.312Z,100020.69
2022-08-26T10:02:47.865Z,100016.22
2022-08-26T10:06:04.579Z,100019.13
2022-08-26T10:09:10.983Z,100012.97
2022-08-26T10:12:19.223Z,100013.47
2022-08-26T10:15:25.321Z,100010.28
2022-08-26T10:18:40.271Z,100007.84
2022-08-26T10:21:55.319Z,100008.19
2022-08-26T10:25:03.340Z,100015.06
2022-08-26T10:28:25.417Z,100002.91
2022-08-26T10:31:38.463Z,100001.59
2022-08-26T10:34:44.059Z,100000.22
2022-08-26T10:37:55.670Z,99993.63
2022-08-26T10:41:10.636Z,99993.87
2022-08-26T10:44:18.193Z,99989.50
2022-08-26T10:47:26.528Z,99982.22
2022-08-26T10:50:41.745Z,99980.47
2022-08-26T10:53:58.575Z,99983.75
2022-08-26T10:57:25.900Z,99978.69
2022-08-26T11:00:58.426Z,99978.72
2022-08-26T11:04:10.512Z,99975.72
2022-08-26T11:07:35.492Z,99967.69
2022-08-26T11:10:38.141Z,99967.97
2022-08-26T11:14:06.660Z,99973.59
2022-08-26T11:17:11.682Z,99971.84
2022-08-26T11:20:23.723Z,99964.31
2022-08-26T11:23:27.657Z,99954.78
2022-08-26T11:26:49.421Z,99955.31
2022-08-26T11:30:14.321Z,99951.31
2022-08-26T11:33:49.071Z,99947.03
2022-08-26T11:36:57.296Z,99944.78
2022-08-26T11:40:02.866Z,99935.84
2022-08-26T11:43:13.211Z,99944.41
2022-08-26T11:46:25.480Z,99938.09
2022-08-26T11:49:29.700Z,99933.66
2022-08-26T11:52:32.490Z,99928.28
2022-08-26T11:55:41.879Z,99929.53
2022-08-26T11:58:47.020Z,99924.34
2022-08-26T12:01:54.140Z,99917.66
2022-08-26T12:04:57.348Z,99917.16
2022-08-26T12:08:07.305Z,99914.03
2022-08-26T12:11:21.622Z,99903.53
2022-08-26T12:14:27.754Z,99899.66
2022-08-26T12:17:30.475Z,99898.53
2022-08-26T12:20:48.550Z,99890.47
2022-08-26T12:23:56.546Z,99886.63
2022-08-26T12:27:27.175Z,99883.06
2022-08-26T12:30:31.162Z,99882.19
2022-08-26T12:33:36.378Z,99877.13
2022-08-26T12:40:35.559Z,99866.84
2022-08-26T12:43:45.947Z,99861.22
2022-08-26T12:46:49.919Z,99866.97
2022-08-26T12:50:16.362Z,99858.34
2022-08-26T12:53:30.992Z,99857.63
2022-08-26T12:56:41.570Z,99860.53
2022-08-26T12:59:44.220Z,99850.59
2022-08-26T13:02:46.799Z,99850.19
2022-08-26T13:05:49.542Z,99846.69
2022-08-26T13:09:22.989Z,99842.63
2022-08-26T13:12:34.953Z,99841.13
2022-08-26T13:15:37.718Z,99835.72
2022-08-26T13:18:40.264Z,99823.78
2022-08-26T13:21:50.593Z,99824.28
2022-08-26T13:24:56.265Z,99817.91
2022-08-26T13:28:00.717Z,99812.47
2022-08-26T13:31:04.875Z,99804.28
2022-08-26T13:34:10.556Z,99808.91
2022-08-26T13:37:12.895Z,99816.16
2022-08-26T13:40:16.974Z,99806.28
2022-08-26T13:43:19.317Z,99804.78
2022-08-26T13:46:22.518Z,99796.03
2022-08-26T13:49:24.837Z,99794.56
2022-08-26T13:52:30.652Z,99794.31
2022-08-26T13:55:33.481Z,99781.94
2022-08-26T13:58:36.160Z,99795.50
2022-08-26T14:01:39.999Z,99789.22
2022-08-26T14:04:42.624Z,99780.50
2022-08-26T14:07:45.328Z,99780.69
2022-08-26T14:13:50.395Z,99783.31
2022-08-26T14:16:59.467Z,99772.94
2022-08-26T14:20:03.900Z,99782.63
2022-08-26T14:23:14.467Z,99779.69
2022-08-26T14:26:28.366Z,99789.72
2022-08-26T14:29:32.797Z,99785.34
2022-08-26T14:32:35.897Z,99794.38
2022-08-26T14:35:47.965Z,99790.75
2022-08-26T14:38:51.225Z,99796.84
2022-08-26T14:41:56.442Z,99795.00
2022-08-26T14:45:03.091Z,99798.88
2022-08-26T14:48:05.783Z,99798.06
2022-08-26T14:51:08.261Z,99800.28
2022-08-26T14:54:12.497Z,99786.63
2022-08-26T14:57:15.629Z,99780.84
2022-08-26T15:00:20.929Z,99784.94
2022-08-26T15:03:23.255Z,99784.44
2022-08-26T15:06:26.712Z,99789.41
2022-08-26T15:09:29.690Z,99785.88
2022-08-26T15:12:32.219Z,99778.50
2022-08-26T15:15:34.860Z,99786.72
2022-08-26T15:18:37.769Z,99781.00
2022-08-26T15:21:40.137Z,99783.50
2022-08-26T15:24:43.287Z,99779.09
2022-08-26T15:27:45.552Z,99771.69
2022-08-26T15:30:48.201Z,99765.94
2022-08-26T15:33:52.466Z,99762.09
2022-08-26T15:36:55.027Z,99759.88
2022-08-26T15:39:57.350Z,99753.84
2022-08-26T15:43:17.725Z,99759.91
2022-08-26T15:46:20.341Z,99763.19
2022-08-26T15:49:23.266Z,99755.50
2022-08-26T15:52:26.346Z,99759.63
2022-08-26T15:55:29.874Z,99757.16
2022-08-26T15:58:32.131Z,99749.47
2022-08-26T16:01:35.480Z,99743.38
2022-08-26T16:04:38.299Z,99742.25
2022-08-26T16:07:40.575Z,99744.72
2022-08-26T16:10:50.058Z,99744.84
2022-08-26T16:13:54.447Z,99746.84
2022-08-26T16:16:59.896Z,99732.88
2022-08-26T16:20:02.622Z,99736.66
2022-08-26T16:23:07.433Z,99734.81
2022-08-26T16:26:12.143Z,99733.06
2022-08-26T16:29:16.827Z,99733.28
2022-08-26T16:32:19.138Z,99736.22
2022-08-26T16:35:22.038Z,99741.78
2022-08-26T16:38:24.655Z,99730.88
2022-08-26T16:41:29.594Z,99740.34
2022-08-26T16:44:44.199Z,99735.16
2022-08-26T16:47:49.991Z,99742.00
2022-08-26T16:50:54.401Z,99749.28
2022-08-26T16:54:01.127Z,99751.94
2022-08-26T16:57:04.161Z,99746.31
2022-08-26T17:00:12.731Z,99737.47
2022-08-26T17:03:16.941Z,99748.81
2022-08-26T17:06:19.615Z,99749.63
2022-08-26T17:09:22.381Z,99750.00
2022-08-26T17:12:25.039Z,99743.81
2022-08-26T17:15:28.516Z,99737.25
2022-08-26T17:18:31.219Z,99740.91
2022-08-26T17:21:35.742Z,99744.97
2022-08-26T17:24:39.153Z,99748.78
2022-08-26T17:27:42.831Z,99751.28
2022-08-26T17:30:45.475Z,99747.06
2022-08-26T17:33:53.442Z,99748.87
2022-08-26T17:36:56.896Z,99755.53
2022-08-26T17:39:59.211Z,99756.84
2022-08-26T17:43:01.994Z,99760.91
2022-08-26T17:46:07.158Z,99756.44
2022-08-26T17:49:10.527Z,99757.03
2022-08-26T17:52:13.134Z,99756.84
2022-08-26T17:55:17.902Z,99751.19
2022-08-26T17:58:23.435Z,99755.03
2022-08-26T18:01:28.165Z,99759.50
2022-08-26T18:04:31.190Z,99773.63
2022-08-26T18:07:33.613Z,99762.44
2022-08-26T18:10:46.352Z,99764.81
2022-08-26T18:13:48.902Z,99769.41
2022-08-26T18:16:51.820Z,99769.69
2022-08-26T18:19:54.441Z,99771.56
2022-08-26T18:22:57.554Z,99767.84
2022-08-26T18:26:00.106Z,99765.78
2022-08-26T18:29:02.956Z,99771.81
2022-08-26T18:32:05.518Z,99771.34
2022-08-26T18:35:10.542Z,99763.66
2022-08-26T18:38:16.357Z,99768.62
2022-08-26T18:41:21.672Z,99763.78
2022-08-26T18:44:24.770Z,99765.91
2022-08-26T18:47:27.893Z,99765.66
2022-08-26T18:50:30.864Z,99762.94
2022-08-26T18:53:35.410Z,99777.63
2022-08-26T18:56:39.322Z,99769.31
2022-08-26T18:59:42.005Z,99777.59
2022-08-26T19:02:46.997Z,99778.81
2022-08-26T19:05:56.566Z,99781.88
2022-08-26T19:09:00.157Z,99785.69
2022-08-26T19:12:04.531Z,99783.91
2022-08-26T19:15:07.794Z,99781.75
2022-08-26T19:18:11.827Z,99778.44
2022-08-26T19:21:14.928Z,99789.38
2022-08-26T19:24:18.857Z,99794.56
2022-08-26T19:27:21.555Z,99794.44
2022-08-26T19:30:24.250Z,99795.25
2022-08-26T19:33:33.617Z,99793.91
2022-08-26T19:36:36.406Z,99786.44
2022-08-26T19:39:38.970Z,99790.72
2022-08-26T19:42:41.569Z,99787.53
2022-08-26T19:45:44.406Z,99794.72
2022-08-26T19:48:49.959Z,99795.22
2022-08-26T19:51:54.427Z,99798.28
2022-08-26T19:54:57.662Z,99802.87
2022-08-26T19:58:00.002Z,99805.28
2022-08-26T20:01:02.943Z,99798.13
2022-08-26T20:04:05.634Z,99803.97
2022-08-26T20:07:09.626Z,99815.41
2022-08-26T20:10:14.936Z,99813.16
2022-08-26T20:13:17.934Z,99818.06
2022-08-26T20:16:21.027Z,99817.53
2022-08-26T20:19:42.558Z,99817.69
2022-08-26T20:22:45.278Z,99828.09
2022-08-26T20:25:47.622Z,99827.50
2022-08-26T20:28:51.115Z,99833.37
2022-08-26T20:31:54.652Z,99833.16
2022-08-26T20:34:57.323Z,99836.91
2022-08-26T20:38:00.008Z,99835.69
2022-08-26T20:41:02.683Z,99843.63
2022-08-26T20:44:05.315Z,99840.94
2022-08-26T20:47:09.319Z,99845.34
2022-08-26T20:50:11.712Z,99842.22
2022-08-26T20:53:14.571Z,99846.00
2022-08-26T20:56:22.354Z,99841.63
2022-08-26T20:59:26.540Z,99845.53
2022-08-26T21:02:28.946Z,99848.56
2022-08-26T21:05:31.765Z,99851.72
2022-08-26T21:08:33.932Z,99862.13
2022-08-26T21:11:38.507Z,99864.78
2022-08-26T21:14:40.812Z,99870.09
2022-08-26T21:17:43.447Z,99858.31
2022-08-26T21:20:45.819Z,99863.84
2022-08-26T21:23:48.548Z,99870.44
2022-08-26T21:26:50.813Z,99870.22
2022-08-26T21:29:54.131Z,99866.44
2022-08-26T21:32:56.387Z,99866.56
2022-08-26T21:35:59.631Z,99870.63
2022-08-26T21:39:02.066Z,99872.78
2022-08-26T21:42:05.634Z,99867.84
2022-08-26T21:45:07.939Z,99869.28
2022-08-26T21:48:10.953Z,99867.09
2022-08-26T21:51:15.085Z,99865.09
2022-08-26T21:54:18.365Z,99862.94
2022-08-26T21:57:20.772Z,99865.25
2022-08-26T22:00:23.566Z,99864.44
2022-08-26T22:03:28.903Z,99867.19
2022-08-26T22:06:41.785Z,99865.78
2022-08-26T22:09:44.972Z,99866.84
2022-08-26T22:12:47.512Z,99865.88
2022-08-26T22:15:50.813Z,99865.47
2022-08-26T22:18:53.698Z,99861.94
2022-08-26T22:21:56.224Z,99865.09
2022-08-26T22:24:58.499Z,99870.28
2022-08-26T22:28:01.852Z,99867.81
2022-08-26T22:31:05.245Z,99868.03
2022-08-26T22:34:12.818Z,99857.44
2022-08-26T22:37:15.076Z,99860.53
2022-08-26T22:40:18.973Z,99852.41
2022-08-26T22:43:24.821Z,99860.34
2022-08-26T22:46:27.767Z,99851.81
2022-08-26T22:49:30.035Z,99850.81
2022-08-26T22:52:33.402Z,99847.72
2022-08-26T22:55:37.205Z,99847.09
2022-08-26T22:58:40.103Z,99843.78
2022-08-26T23:01:43.804Z,99844.81
2022-08-26T23:04:47.171Z,99844.81
2022-08-26T23:07:49.461Z,99840.69
2022-08-26T23:10:52.800Z,99840.06
2022-08-26T23:13:55.265Z,99840.72
2022-08-26T23:16:58.120Z,99834.84
2022-08-26T23:20:01.029Z,99843.38
2022-08-26T23:23:04.225Z,99836.72
2022-08-26T23:26:08.140Z,99837.75
2022-08-26T23:29:13.178Z,99836.28
2022-08-26T23:32:15.497Z,99832.53
2022-08-26T23:35:22.486Z,99831.28
2022-08-26T23:38:24.767Z,99829.22
2022-08-26T23:41:28.683Z,99825.09
2022-08-26T23:44:31.355Z,99818.44
2022-08-26T23:47:36.373Z,99818.22
2022-08-26T23:51:04.720Z,99818.00
2022-08-26T23:54:07.347Z,99820.50
2022-08-26T23:57:11.461Z,99817.78
